sensor_id;sensor_type;location;lat;lon;timestamp;P1;durP1;ratioP1;P2;durP2;ratioP2
10643;SDS011;5370;50.132;8.626;2023-07-29T00:00:47;7.85;;;6.72;;
10643;SDS011;5370;50.132;8.626;2023-07-29T00:03:13;11.38;;;7.20;;
10643;SDS011;5370;50.132;8.626;2023-07-29T00:05:39;12.02;;;7.30;;
10643;SDS011;5370;50.132;8.626;2023-07-29T00:08:05;7.60;;;6.78;;
10643;SDS011;5370;50.132;8.626;2023-07-29T00:10:31;8.30;;;7.20;;
10643;SDS011;5370;50.132;8.626;2023-07-29T00:12:57;8.95;;;7.05;;
10643;SDS011;5370;50.132;8.626;2023-07-29T00:15:23;10.20;;;6.82;;
10643;SDS011;5370;50.132;8.626;2023-07-29T00:17:48;12.13;;;7.32;;
10643;SDS011;5370;50.132;8.626;2023-07-29T00:20:14;10.55;;;8.00;;
10643;SDS011;5370;50.132;8.626;2023-07-29T00:22:40;9.38;;;7.10;;
10643;SDS011;5370;50.132;8.626;2023-07-29T00:25:06;7.55;;;6.85;;
10643;SDS011;5370;50.132;8.626;2023-07-29T00:27:32;10.65;;;7.93;;
10643;SDS011;5370;50.132;8.626;2023-07-29T00:29:57;7.63;;;6.82;;
10643;SDS011;5370;50.132;8.626;2023-07-29T00:32:23;8.68;;;7.78;;
10643;SDS011;5370;50.132;8.626;2023-07-29T00:34:48;8.82;;;7.22;;
10643;SDS011;5370;50.132;8.626;2023-07-29T00:37:14;11.65;;;8.32;;
10643;SDS011;5370;50.132;8.626;2023-07-29T00:39:40;8.82;;;7.97;;
10643;SDS011;5370;50.132;8.626;2023-07-29T00:42:06;10.77;;;8.13;;
10643;SDS011;5370;50.132;8.626;2023-07-29T00:44:32;11.65;;;9.45;;
10643;SDS011;5370;50.132;8.626;2023-07-29T00:46:57;10.82;;;9.68;;
10643;SDS011;5370;50.132;8.626;2023-07-29T00:49:25;11.40;;;10.20;;
10643;SDS011;5370;50.132;8.626;2023-07-29T00:51:51;11.50;;;9.55;;
10643;SDS011;5370;50.132;8.626;2023-07-29T00:54:17;14.02;;;11.30;;
10643;SDS011;5370;50.132;8.626;2023-07-29T00:56:42;14.00;;;10.02;;
10643;SDS011;5370;50.132;8.626;2023-07-29T00:59:08;14.98;;;10.90;;
10643;SDS011;5370;50.132;8.626;2023-07-29T01:01:34;12.35;;;10.70;;
10643;SDS011;5370;50.132;8.626;2023-07-29T01:04:00;13.98;;;10.80;;
10643;SDS011;5370;50.132;8.626;2023-07-29T01:17:46;13.95;;;11.68;;
10643;SDS011;5370;50.132;8.626;2023-07-29T01:20:19;11.65;;;10.23;;
10643;SDS011;5370;50.132;8.626;2023-07-29T01:22:45;12.25;;;10.35;;
10643;SDS011;5370;50.132;8.626;2023-07-29T01:25:12;14.73;;;11.32;;
10643;SDS011;5370;50.132;8.626;2023-07-29T01:27:38;13.95;;;10.80;;
10643;SDS011;5370;50.132;8.626;2023-07-29T01:30:04;13.00;;;11.70;;
10643;SDS011;5370;50.132;8.626;2023-07-29T01:38:17;12.95;;;11.40;;
10643;SDS011;5370;50.132;8.626;2023-07-29T01:40:44;15.95;;;13.15;;
10643;SDS011;5370;50.132;8.626;2023-07-29T01:43:13;14.77;;;12.52;;
10643;SDS011;5370;50.132;8.626;2023-07-29T01:45:38;15.20;;;12.73;;
10643;SDS011;5370;50.132;8.626;2023-07-29T01:48:05;13.02;;;11.70;;
10643;SDS011;5370;50.132;8.626;2023-07-29T01:50:31;13.02;;;11.52;;
10643;SDS011;5370;50.132;8.626;2023-07-29T01:52:59;13.95;;;12.13;;
10643;SDS011;5370;50.132;8.626;2023-07-29T01:55:25;14.82;;;13.32;;
10643;SDS011;5370;50.132;8.626;2023-07-29T01:57:51;14.07;;;12.63;;
10643;SDS011;5370;50.132;8.626;2023-07-29T02:00:20;15.02;;;12.80;;
10643;SDS011;5370;50.132;8.626;2023-07-29T02:02:46;13.23;;;11.68;;
10643;SDS011;5370;50.132;8.626;2023-07-29T02:05:11;15.00;;;12.27;;
10643;SDS011;5370;50.132;8.626;2023-07-29T02:07:37;14.10;;;11.77;;
10643;SDS011;5370;50.132;8.626;2023-07-29T02:10:03;13.70;;;12.25;;
10643;SDS011;5370;50.132;8.626;2023-07-29T02:12:29;13.18;;;10.60;;
10643;SDS011;5370;50.132;8.626;2023-07-29T02:14:54;15.73;;;10.88;;
10643;SDS011;5370;50.132;8.626;2023-07-29T02:17:20;14.13;;;10.90;;
10643;SDS011;5370;50.132;8.626;2023-07-29T02:19:46;13.27;;;10.75;;
10643;SDS011;5370;50.132;8.626;2023-07-29T02:22:13;14.02;;;11.02;;
10643;SDS011;5370;50.132;8.626;2023-07-29T02:24:41;15.27;;;10.60;;
10643;SDS011;5370;50.132;8.626;2023-07-29T02:27:07;16.08;;;11.00;;
10643;SDS011;5370;50.132;8.626;2023-07-29T02:29:33;13.43;;;10.05;;
10643;SDS011;5370;50.132;8.626;2023-07-29T02:31:59;16.10;;;9.95;;
10643;SDS011;5370;50.132;8.626;2023-07-29T02:34:24;11.10;;;9.57;;
10643;SDS011;5370;50.132;8.626;2023-07-29T02:36:50;12.75;;;10.30;;
10643;SDS011;5370;50.132;8.626;2023-07-29T02:39:16;12.32;;;10.43;;
10643;SDS011;5370;50.132;8.626;2023-07-29T02:41:41;11.93;;;8.90;;
10643;SDS011;5370;50.132;8.626;2023-07-29T02:44:07;12.98;;;8.73;;
10643;SDS011;5370;50.132;8.626;2023-07-29T02:46:32;9.40;;;8.48;;
10643;SDS011;5370;50.132;8.626;2023-07-29T02:48:58;11.75;;;7.70;;
10643;SDS011;5370;50.132;8.626;2023-07-29T02:51:24;14.57;;;8.43;;
10643;SDS011;5370;50.132;8.626;2023-07-29T02:53:49;12.73;;;7.97;;
10643;SDS011;5370;50.132;8.626;2023-07-29T02:56:15;10.02;;;8.48;;
10643;SDS011;5370;50.132;8.626;2023-07-29T02:58:40;9.85;;;7.05;;
10643;SDS011;5370;50.132;8.626;2023-07-29T03:01:06;9.07;;;7.30;;
10643;SDS011;5370;50.132;8.626;2023-07-29T03:03:32;11.98;;;7.32;;
10643;SDS011;5370;50.132;8.626;2023-07-29T03:06:08;13.38;;;7.20;;
10643;SDS011;5370;50.132;8.626;2023-07-29T03:08:35;8.15;;;6.47;;
10643;SDS011;5370;50.132;8.626;2023-07-29T03:11:05;10.65;;;7.43;;
10643;SDS011;5370;50.132;8.626;2023-07-29T03:13:32;8.45;;;6.55;;
10643;SDS011;5370;50.132;8.626;2023-07-29T03:16:31;8.40;;;6.30;;
10643;SDS011;5370;50.132;8.626;2023-07-29T03:18:49;8.93;;;6.40;;
10643;SDS011;5370;50.132;8.626;2023-07-29T03:21:15;9.60;;;6.75;;
10643;SDS011;5370;50.132;8.626;2023-07-29T03:23:40;9.90;;;6.65;;
10643;SDS011;5370;50.132;8.626;2023-07-29T03:26:06;7.57;;;6.00;;
10643;SDS011;5370;50.132;8.626;2023-07-29T03:28:35;9.85;;;6.13;;
10643;SDS011;5370;50.132;8.626;2023-07-29T03:31:03;8.48;;;5.63;;
10643;SDS011;5370;50.132;8.626;2023-07-29T03:33:29;7.40;;;5.47;;
10643;SDS011;5370;50.132;8.626;2023-07-29T03:35:54;7.95;;;5.85;;
10643;SDS011;5370;50.132;8.626;2023-07-29T03:38:20;6.00;;;5.07;;
10643;SDS011;5370;50.132;8.626;2023-07-29T03:40:46;7.88;;;5.47;;
10643;SDS011;5370;50.132;8.626;2023-07-29T03:43:11;9.15;;;5.45;;
10643;SDS011;5370;50.132;8.626;2023-07-29T03:45:39;6.25;;;5.55;;
10643;SDS011;5370;50.132;8.626;2023-07-29T03:48:05;6.47;;;5.80;;
10643;SDS011;5370;50.132;8.626;2023-07-29T03:50:30;7.40;;;6.22;;
10643;SDS011;5370;50.132;8.626;2023-07-29T03:52:58;7.72;;;6.03;;
10643;SDS011;5370;50.132;8.626;2023-07-29T03:55:23;7.45;;;6.18;;
10643;SDS011;5370;50.132;8.626;2023-07-29T03:57:49;6.78;;;6.07;;
10643;SDS011;5370;50.132;8.626;2023-07-29T04:00:14;7.55;;;6.55;;
10643;SDS011;5370;50.132;8.626;2023-07-29T04:02:41;7.93;;;6.82;;
10643;SDS011;5370;50.132;8.626;2023-07-29T04:05:07;12.73;;;7.25;;
10643;SDS011;5370;50.132;8.626;2023-07-29T04:07:35;8.05;;;7.25;;
10643;SDS011;5370;50.132;8.626;2023-07-29T04:10:01;9.48;;;7.32;;
10643;SDS011;5370;50.132;8.626;2023-07-29T04:12:27;8.77;;;6.90;;
10643;SDS011;5370;50.132;8.626;2023-07-29T04:14:53;9.38;;;8.07;;
10643;SDS011;5370;50.132;8.626;2023-07-29T04:17:18;9.18;;;8.20;;
10643;SDS011;5370;50.132;8.626;2023-07-29T04:19:44;9.70;;;8.18;;
10643;SDS011;5370;50.132;8.626;2023-07-29T04:22:09;11.15;;;8.65;;
10643;SDS011;5370;50.132;8.626;2023-07-29T04:24:35;10.23;;;8.02;;
10643;SDS011;5370;50.132;8.626;2023-07-29T04:27:01;8.88;;;8.10;;
10643;SDS011;5370;50.132;8.626;2023-07-29T04:29:26;11.63;;;7.93;;
10643;SDS011;5370;50.132;8.626;2023-07-29T04:31:52;9.52;;;8.52;;
10643;SDS011;5370;50.132;8.626;2023-07-29T04:34:18;8.95;;;7.88;;
10643;SDS011;5370;50.132;8.626;2023-07-29T04:36:45;8.43;;;7.72;;
10643;SDS011;5370;50.132;8.626;2023-07-29T04:39:11;10.80;;;8.13;;
10643;SDS011;5370;50.132;8.626;2023-07-29T04:41:36;8.77;;;7.75;;
10643;SDS011;5370;50.132;8.626;2023-07-29T04:44:02;9.77;;;8.88;;
10643;SDS011;5370;50.132;8.626;2023-07-29T04:46:28;10.13;;;8.45;;
10643;SDS011;5370;50.132;8.626;2023-07-29T04:48:53;9.00;;;8.07;;
10643;SDS011;5370;50.132;8.626;2023-07-29T04:51:19;10.93;;;9.80;;
10643;SDS011;5370;50.132;8.626;2023-07-29T04:53:44;10.32;;;9.32;;
10643;SDS011;5370;50.132;8.626;2023-07-29T04:56:10;12.85;;;8.90;;
10643;SDS011;5370;50.132;8.626;2023-07-29T04:58:36;10.65;;;8.73;;
10643;SDS011;5370;50.132;8.626;2023-07-29T05:01:02;11.93;;;10.65;;
10643;SDS011;5370;50.132;8.626;2023-07-29T05:03:28;11.18;;;10.00;;
10643;SDS011;5370;50.132;8.626;2023-07-29T05:05:54;12.60;;;10.57;;
10643;SDS011;5370;50.132;8.626;2023-07-29T05:08:20;19.67;;;17.63;;
10643;SDS011;5370;50.132;8.626;2023-07-29T05:10:49;14.35;;;12.45;;
10643;SDS011;5370;50.132;8.626;2023-07-29T05:13:15;12.50;;;10.77;;
10643;SDS011;5370;50.132;8.626;2023-07-29T05:15:41;14.73;;;12.52;;
10643;SDS011;5370;50.132;8.626;2023-07-29T05:18:07;11.13;;;9.95;;
10643;SDS011;5370;50.132;8.626;2023-07-29T05:20:32;12.48;;;11.20;;
10643;SDS011;5370;50.132;8.626;2023-07-29T05:22:58;9.85;;;8.85;;
10643;SDS011;5370;50.132;8.626;2023-07-29T05:25:23;12.20;;;10.40;;
10643;SDS011;5370;50.132;8.626;2023-07-29T05:27:49;13.35;;;10.32;;
10643;SDS011;5370;50.132;8.626;2023-07-29T05:30:14;10.18;;;9.18;;
10643;SDS011;5370;50.132;8.626;2023-07-29T05:32:40;15.30;;;10.35;;
10643;SDS011;5370;50.132;8.626;2023-07-29T05:35:06;11.65;;;10.60;;
10643;SDS011;5370;50.132;8.626;2023-07-29T05:37:31;11.35;;;10.07;;
10643;SDS011;5370;50.132;8.626;2023-07-29T05:39:57;12.25;;;9.18;;
10643;SDS011;5370;50.132;8.626;2023-07-29T05:42:22;11.45;;;10.32;;
10643;SDS011;5370;50.132;8.626;2023-07-29T05:44:48;12.05;;;10.13;;
10643;SDS011;5370;50.132;8.626;2023-07-29T05:47:13;9.57;;;8.57;;
10643;SDS011;5370;50.132;8.626;2023-07-29T05:49:39;10.18;;;9.27;;
10643;SDS011;5370;50.132;8.626;2023-07-29T05:52:04;11.77;;;9.02;;
10643;SDS011;5370;50.132;8.626;2023-07-29T05:54:30;12.75;;;9.43;;
10643;SDS011;5370;50.132;8.626;2023-07-29T05:56:56;9.10;;;8.20;;
10643;SDS011;5370;50.132;8.626;2023-07-29T05:59:21;10.30;;;8.57;;
10643;SDS011;5370;50.132;8.626;2023-07-29T06:01:47;11.57;;;10.38;;
10643;SDS011;5370;50.132;8.626;2023-07-29T06:04:12;11.07;;;10.02;;
10643;SDS011;5370;50.132;8.626;2023-07-29T06:06:38;10.43;;;8.32;;
10643;SDS011;5370;50.132;8.626;2023-07-29T06:09:03;10.73;;;9.45;;
10643;SDS011;5370;50.132;8.626;2023-07-29T06:11:29;10.73;;;9.07;;
10643;SDS011;5370;50.132;8.626;2023-07-29T06:13:55;14.05;;;10.20;;
10643;SDS011;5370;50.132;8.626;2023-07-29T06:16:20;10.88;;;9.40;;
10643;SDS011;5370;50.132;8.626;2023-07-29T06:18:45;11.60;;;10.30;;
10643;SDS011;5370;50.132;8.626;2023-07-29T06:21:12;12.32;;;11.13;;
10643;SDS011;5370;50.132;8.626;2023-07-29T06:23:42;11.00;;;9.90;;
10643;SDS011;5370;50.132;8.626;2023-07-29T06:26:08;12.38;;;11.18;;
10643;SDS011;5370;50.132;8.626;2023-07-29T06:28:34;11.85;;;10.52;;
10643;SDS011;5370;50.132;8.626;2023-07-29T06:30:59;12.35;;;11.18;;
10643;SDS011;5370;50.132;8.626;2023-07-29T06:33:25;13.07;;;11.48;;
10643;SDS011;5370;50.132;8.626;2023-07-29T06:35:50;13.05;;;11.60;;
10643;SDS011;5370;50.132;8.626;2023-07-29T06:38:16;13.02;;;11.70;;
10643;SDS011;5370;50.132;8.626;2023-07-29T06:40:46;14.55;;;11.15;;
10643;SDS011;5370;50.132;8.626;2023-07-29T06:43:15;13.43;;;12.10;;
10643;SDS011;5370;50.132;8.626;2023-07-29T06:45:41;12.30;;;10.98;;
10643;SDS011;5370;50.132;8.626;2023-07-29T06:48:07;10.95;;;9.82;;
10643;SDS011;5370;50.132;8.626;2023-07-29T06:50:32;11.93;;;10.80;;
10643;SDS011;5370;50.132;8.626;2023-07-29T06:52:58;11.52;;;9.60;;
10643;SDS011;5370;50.132;8.626;2023-07-29T06:55:23;11.00;;;9.35;;
10643;SDS011;5370;50.132;8.626;2023-07-29T06:57:49;8.45;;;7.65;;
10643;SDS011;5370;50.132;8.626;2023-07-29T07:00:14;8.88;;;8.07;;
10643;SDS011;5370;50.132;8.626;2023-07-29T07:02:40;7.25;;;6.65;;
10643;SDS011;5370;50.132;8.626;2023-07-29T07:05:06;8.55;;;6.88;;
10643;SDS011;5370;50.132;8.626;2023-07-29T07:07:32;8.38;;;7.57;;
10643;SDS011;5370;50.132;8.626;2023-07-29T07:09:57;22.35;;;18.80;;
10643;SDS011;5370;50.132;8.626;2023-07-29T07:12:23;7.75;;;6.63;;
10643;SDS011;5370;50.132;8.626;2023-07-29T07:14:48;12.15;;;10.95;;
10643;SDS011;5370;50.132;8.626;2023-07-29T07:17:14;8.02;;;7.22;;
10643;SDS011;5370;50.132;8.626;2023-07-29T07:19:40;9.35;;;7.63;;
10643;SDS011;5370;50.132;8.626;2023-07-29T07:22:05;8.73;;;7.93;;
10643;SDS011;5370;50.132;8.626;2023-07-29T07:24:31;8.40;;;7.75;;
10643;SDS011;5370;50.132;8.626;2023-07-29T07:26:56;10.35;;;8.25;;
10643;SDS011;5370;50.132;8.626;2023-07-29T07:29:22;8.65;;;7.68;;
10643;SDS011;5370;50.132;8.626;2023-07-29T07:31:51;8.32;;;7.57;;
10643;SDS011;5370;50.132;8.626;2023-07-29T07:34:18;8.40;;;7.38;;
10643;SDS011;5370;50.132;8.626;2023-07-29T07:36:44;9.38;;;8.48;;
10643;SDS011;5370;50.132;8.626;2023-07-29T07:39:10;8.80;;;8.10;;
10643;SDS011;5370;50.132;8.626;2023-07-29T07:41:36;8.52;;;7.70;;
10643;SDS011;5370;50.132;8.626;2023-07-29T07:44:01;9.27;;;8.07;;
10643;SDS011;5370;50.132;8.626;2023-07-29T07:46:27;9.20;;;8.18;;
10643;SDS011;5370;50.132;8.626;2023-07-29T07:48:53;10.07;;;8.63;;
10643;SDS011;5370;50.132;8.626;2023-07-29T07:51:19;9.32;;;8.43;;
10643;SDS011;5370;50.132;8.626;2023-07-29T07:53:44;10.35;;;8.82;;
10643;SDS011;5370;50.132;8.626;2023-07-29T07:56:10;8.55;;;7.68;;
10643;SDS011;5370;50.132;8.626;2023-07-29T07:58:35;8.25;;;7.57;;
10643;SDS011;5370;50.132;8.626;2023-07-29T08:01:02;7.63;;;6.88;;
10643;SDS011;5370;50.132;8.626;2023-07-29T08:03:28;9.20;;;8.18;;
10643;SDS011;5370;50.132;8.626;2023-07-29T08:05:53;7.85;;;6.80;;
10643;SDS011;5370;50.132;8.626;2023-07-29T08:08:19;8.73;;;6.93;;
10643;SDS011;5370;50.132;8.626;2023-07-29T08:10:44;7.88;;;7.18;;
10643;SDS011;5370;50.132;8.626;2023-07-29T08:13:10;7.05;;;6.45;;
10643;SDS011;5370;50.132;8.626;2023-07-29T08:15:35;6.75;;;6.10;;
10643;SDS011;5370;50.132;8.626;2023-07-29T08:18:01;4.43;;;4.03;;
10643;SDS011;5370;50.132;8.626;2023-07-29T08:20:26;6.32;;;4.18;;
10643;SDS011;5370;50.132;8.626;2023-07-29T08:22:52;5.78;;;4.30;;
10643;SDS011;5370;50.132;8.626;2023-07-29T08:25:17;5.43;;;4.35;;
10643;SDS011;5370;50.132;8.626;2023-07-29T08:27:43;4.18;;;3.70;;
10643;SDS011;5370;50.132;8.626;2023-07-29T08:30:09;10.63;;;6.10;;
10643;SDS011;5370;50.132;8.626;2023-07-29T08:32:34;4.93;;;4.07;;
10643;SDS011;5370;50.132;8.626;2023-07-29T08:35:00;5.50;;;3.97;;
10643;SDS011;5370;50.132;8.626;2023-07-29T08:37:25;4.32;;;3.22;;
10643;SDS011;5370;50.132;8.626;2023-07-29T08:39:52;4.55;;;3.25;;
10643;SDS011;5370;50.132;8.626;2023-07-29T08:42:19;4.80;;;2.80;;
10643;SDS011;5370;50.132;8.626;2023-07-29T08:44:45;5.20;;;2.08;;
10643;SDS011;5370;50.132;8.626;2023-07-29T08:47:14;3.30;;;2.20;;
10643;SDS011;5370;50.132;8.626;2023-07-29T08:49:40;4.03;;;2.30;;
10643;SDS011;5370;50.132;8.626;2023-07-29T08:52:06;4.40;;;2.72;;
10643;SDS011;5370;50.132;8.626;2023-07-29T08:54:32;5.80;;;2.08;;
10643;SDS011;5370;50.132;8.626;2023-07-29T08:56:58;5.93;;;2.75;;
10643;SDS011;5370;50.132;8.626;2023-07-29T08:59:24;6.18;;;1.98;;
10643;SDS011;5370;50.132;8.626;2023-07-29T09:01:50;7.93;;;6.75;;
10643;SDS011;5370;50.132;8.626;2023-07-29T09:04:20;2.25;;;1.77;;
10643;SDS011;5370;50.132;8.626;2023-07-29T09:06:46;2.72;;;1.90;;
10643;SDS011;5370;50.132;8.626;2023-07-29T09:09:13;2.40;;;1.60;;
10643;SDS011;5370;50.132;8.626;2023-07-29T09:11:38;2.75;;;1.98;;
10643;SDS011;5370;50.132;8.626;2023-07-29T09:14:04;2.47;;;1.80;;
10643;SDS011;5370;50.132;8.626;2023-07-29T09:16:29;3.55;;;1.60;;
10643;SDS011;5370;50.132;8.626;2023-07-29T09:18:55;2.75;;;1.80;;
10643;SDS011;5370;50.132;8.626;2023-07-29T09:21:22;2.92;;;1.67;;
10643;SDS011;5370;50.132;8.626;2023-07-29T09:23:50;1.52;;;1.42;;
10643;SDS011;5370;50.132;8.626;2023-07-29T09:26:22;2.15;;;1.23;;
10643;SDS011;5370;50.132;8.626;2023-07-29T09:28:55;2.33;;;1.67;;
10643;SDS011;5370;50.132;8.626;2023-07-29T09:31:22;3.38;;;1.90;;
10643;SDS011;5370;50.132;8.626;2023-07-29T09:33:55;2.95;;;1.00;;
10643;SDS011;5370;50.132;8.626;2023-07-29T09:36:24;1.00;;;0.90;;
10643;SDS011;5370;50.132;8.626;2023-07-29T09:38:54;1.10;;;1.00;;
10643;SDS011;5370;50.132;8.626;2023-07-29T09:41:24;2.33;;;0.70;;
10643;SDS011;5370;50.132;8.626;2023-07-29T09:46:23;1.13;;;0.90;;
10643;SDS011;5370;50.132;8.626;2023-07-29T09:48:52;0.80;;;0.77;;
10643;SDS011;5370;50.132;8.626;2023-07-29T09:51:19;1.70;;;0.90;;
10643;SDS011;5370;50.132;8.626;2023-07-29T09:53:45;2.50;;;1.10;;
10643;SDS011;5370;50.132;8.626;2023-07-29T09:56:12;3.30;;;1.13;;
10643;SDS011;5370;50.132;8.626;2023-07-29T09:58:38;1.30;;;1.20;;
10643;SDS011;5370;50.132;8.626;2023-07-29T10:01:07;4.55;;;3.17;;
10643;SDS011;5370;50.132;8.626;2023-07-29T10:03:34;5.43;;;1.10;;
10643;SDS011;5370;50.132;8.626;2023-07-29T10:06:04;2.72;;;0.68;;
10643;SDS011;5370;50.132;8.626;2023-07-29T10:08:31;2.88;;;0.95;;
10643;SDS011;5370;50.132;8.626;2023-07-29T10:11:00;2.05;;;0.80;;
10643;SDS011;5370;50.132;8.626;2023-07-29T10:13:26;1.55;;;1.10;;
10643;SDS011;5370;50.132;8.626;2023-07-29T10:15:53;1.38;;;0.80;;
10643;SDS011;5370;50.132;8.626;2023-07-29T10:18:19;2.80;;;1.10;;
10643;SDS011;5370;50.132;8.626;2023-07-29T10:20:47;16.92;;;14.55;;
10643;SDS011;5370;50.132;8.626;2023-07-29T10:23:15;4.55;;;1.00;;
10643;SDS011;5370;50.132;8.626;2023-07-29T10:25:46;1.02;;;0.80;;
10643;SDS011;5370;50.132;8.626;2023-07-29T10:28:15;3.92;;;1.10;;
10643;SDS011;5370;50.132;8.626;2023-07-29T10:30:43;2.65;;;0.90;;
10643;SDS011;5370;50.132;8.626;2023-07-29T10:33:09;1.42;;;1.13;;
10643;SDS011;5370;50.132;8.626;2023-07-29T10:35:35;4.45;;;1.17;;
10643;SDS011;5370;50.132;8.626;2023-07-29T10:38:02;1.75;;;1.08;;
10643;SDS011;5370;50.132;8.626;2023-07-29T10:40:45;1.10;;;0.98;;
10643;SDS011;5370;50.132;8.626;2023-07-29T10:43:13;4.25;;;3.35;;
10643;SDS011;5370;50.132;8.626;2023-07-29T10:45:48;3.88;;;2.22;;
10643;SDS011;5370;50.132;8.626;2023-07-29T10:48:39;8.70;;;7.85;;
10643;SDS011;5370;50.132;8.626;2023-07-29T10:51:21;3.92;;;2.67;;
10643;SDS011;5370;50.132;8.626;2023-07-29T10:54:10;6.13;;;2.70;;
10643;SDS011;5370;50.132;8.626;2023-07-29T10:56:39;1.85;;;1.08;;
10643;SDS011;5370;50.132;8.626;2023-07-29T11:01:43;2.28;;;2.10;;
10643;SDS011;5370;50.132;8.626;2023-07-29T11:04:25;4.90;;;4.22;;
10643;SDS011;5370;50.132;8.626;2023-07-29T11:09:42;37.97;;;11.25;;
10643;SDS011;5370;50.132;8.626;2023-07-29T11:15:20;30.17;;;8.77;;
10643;SDS011;5370;50.132;8.626;2023-07-29T11:20:22;10.80;;;8.82;;
10643;SDS011;5370;50.132;8.626;2023-07-29T11:22:52;12.27;;;5.68;;
10643;SDS011;5370;50.132;8.626;2023-07-29T11:25:21;7.72;;;2.40;;
10643;SDS011;5370;50.132;8.626;2023-07-29T11:27:48;47.20;;;11.60;;
10643;SDS011;5370;50.132;8.626;2023-07-29T11:30:17;1.95;;;1.38;;
10643;SDS011;5370;50.132;8.626;2023-07-29T11:32:43;4.43;;;3.65;;
10643;SDS011;5370;50.132;8.626;2023-07-29T11:35:11;5.10;;;3.55;;
10643;SDS011;5370;50.132;8.626;2023-07-29T11:37:39;7.53;;;6.78;;
10643;SDS011;5370;50.132;8.626;2023-07-29T11:40:06;3.15;;;2.45;;
10643;SDS011;5370;50.132;8.626;2023-07-29T11:42:35;2.40;;;1.77;;
10643;SDS011;5370;50.132;8.626;2023-07-29T11:45:02;1.23;;;1.13;;
10643;SDS011;5370;50.132;8.626;2023-07-29T11:47:30;16.73;;;14.32;;
10643;SDS011;5370;50.132;8.626;2023-07-29T11:49:58;2.88;;;2.60;;
10643;SDS011;5370;50.132;8.626;2023-07-29T11:52:25;4.32;;;3.92;;
10643;SDS011;5370;50.132;8.626;2023-07-29T11:54:52;2.42;;;2.22;;
10643;SDS011;5370;50.132;8.626;2023-07-29T11:57:18;7.82;;;7.07;;
10643;SDS011;5370;50.132;8.626;2023-07-29T11:59:43;2.30;;;1.50;;
10643;SDS011;5370;50.132;8.626;2023-07-29T12:02:11;7.28;;;2.40;;
10643;SDS011;5370;50.132;8.626;2023-07-29T12:04:39;35.63;;;30.08;;
10643;SDS011;5370;50.132;8.626;2023-07-29T12:07:06;7.03;;;4.57;;
10643;SDS011;5370;50.132;8.626;2023-07-29T12:09:32;2.80;;;2.25;;
10643;SDS011;5370;50.132;8.626;2023-07-29T12:12:04;2.60;;;2.38;;
10643;SDS011;5370;50.132;8.626;2023-07-29T12:14:31;3.15;;;1.88;;
10643;SDS011;5370;50.132;8.626;2023-07-29T12:16:59;17.30;;;13.52;;
10643;SDS011;5370;50.132;8.626;2023-07-29T12:19:30;8.50;;;7.28;;
10643;SDS011;5370;50.132;8.626;2023-07-29T12:22:01;4.70;;;4.25;;
10643;SDS011;5370;50.132;8.626;2023-07-29T12:24:30;1.73;;;1.20;;
10643;SDS011;5370;50.132;8.626;2023-07-29T12:26:57;4.20;;;3.22;;
10643;SDS011;5370;50.132;8.626;2023-07-29T12:29:23;2.45;;;1.52;;
10643;SDS011;5370;50.132;8.626;2023-07-29T12:31:49;5.47;;;4.97;;
10643;SDS011;5370;50.132;8.626;2023-07-29T12:34:21;2.80;;;2.42;;
10643;SDS011;5370;50.132;8.626;2023-07-29T12:36:48;7.65;;;2.22;;
10643;SDS011;5370;50.132;8.626;2023-07-29T12:39:16;3.72;;;1.55;;
10643;SDS011;5370;50.132;8.626;2023-07-29T12:41:42;2.10;;;1.90;;
10643;SDS011;5370;50.132;8.626;2023-07-29T12:44:08;1.48;;;1.38;;
10643;SDS011;5370;50.132;8.626;2023-07-29T12:46:33;5.18;;;4.25;;
10643;SDS011;5370;50.132;8.626;2023-07-29T12:48:59;5.05;;;4.07;;
10643;SDS011;5370;50.132;8.626;2023-07-29T12:51:24;5.97;;;2.90;;
10643;SDS011;5370;50.132;8.626;2023-07-29T12:53:50;2.63;;;1.63;;
10643;SDS011;5370;50.132;8.626;2023-07-29T12:56:15;2.53;;;2.28;;
10643;SDS011;5370;50.132;8.626;2023-07-29T12:58:41;4.38;;;2.53;;
10643;SDS011;5370;50.132;8.626;2023-07-29T13:01:06;6.82;;;6.03;;
10643;SDS011;5370;50.132;8.626;2023-07-29T13:03:32;2.22;;;2.05;;
10643;SDS011;5370;50.132;8.626;2023-07-29T13:05:57;1.92;;;1.83;;
10643;SDS011;5370;50.132;8.626;2023-07-29T13:08:23;3.10;;;1.75;;
10643;SDS011;5370;50.132;8.626;2023-07-29T13:10:48;2.85;;;1.60;;
10643;SDS011;5370;50.132;8.626;2023-07-29T13:13:14;2.00;;;1.63;;
10643;SDS011;5370;50.132;8.626;2023-07-29T13:15:39;4.05;;;2.05;;
10643;SDS011;5370;50.132;8.626;2023-07-29T13:18:06;2.65;;;1.70;;
10643;SDS011;5370;50.132;8.626;2023-07-29T13:20:31;2.97;;;1.80;;
10643;SDS011;5370;50.132;8.626;2023-07-29T13:22:58;2.50;;;1.83;;
10643;SDS011;5370;50.132;8.626;2023-07-29T13:25:24;2.92;;;2.38;;
10643;SDS011;5370;50.132;8.626;2023-07-29T13:27:49;3.42;;;2.65;;
10643;SDS011;5370;50.132;8.626;2023-07-29T13:30:15;1.35;;;1.25;;
10643;SDS011;5370;50.132;8.626;2023-07-29T13:32:40;2.08;;;1.88;;
10643;SDS011;5370;50.132;8.626;2023-07-29T13:35:06;7.70;;;3.97;;
10643;SDS011;5370;50.132;8.626;2023-07-29T13:37:32;2.58;;;2.38;;
10643;SDS011;5370;50.132;8.626;2023-07-29T13:39:57;2.33;;;2.13;;
10643;SDS011;5370;50.132;8.626;2023-07-29T13:42:23;4.90;;;2.47;;
10643;SDS011;5370;50.132;8.626;2023-07-29T13:44:48;4.45;;;3.13;;
10643;SDS011;5370;50.132;8.626;2023-07-29T13:47:14;1.55;;;1.40;;
10643;SDS011;5370;50.132;8.626;2023-07-29T13:49:39;4.50;;;3.70;;
10643;SDS011;5370;50.132;8.626;2023-07-29T13:52:05;2.30;;;1.30;;
10643;SDS011;5370;50.132;8.626;2023-07-29T13:54:31;1.40;;;1.25;;
10643;SDS011;5370;50.132;8.626;2023-07-29T13:56:57;4.15;;;2.05;;
10643;SDS011;5370;50.132;8.626;2023-07-29T13:59:23;4.88;;;4.30;;
10643;SDS011;5370;50.132;8.626;2023-07-29T14:01:48;2.25;;;2.05;;
10643;SDS011;5370;50.132;8.626;2023-07-29T14:04:14;7.97;;;4.82;;
10643;SDS011;5370;50.132;8.626;2023-07-29T14:06:39;2.55;;;2.35;;
10643;SDS011;5370;50.132;8.626;2023-07-29T14:09:05;2.03;;;1.50;;
10643;SDS011;5370;50.132;8.626;2023-07-29T14:11:30;1.10;;;1.10;;
10643;SDS011;5370;50.132;8.626;2023-07-29T14:13:56;7.95;;;3.42;;
10643;SDS011;5370;50.132;8.626;2023-07-29T14:16:21;3.22;;;1.50;;
10643;SDS011;5370;50.132;8.626;2023-07-29T14:18:47;3.30;;;1.67;;
10643;SDS011;5370;50.132;8.626;2023-07-29T14:21:12;2.60;;;1.30;;
10643;SDS011;5370;50.132;8.626;2023-07-29T14:23:38;3.70;;;3.03;;
10643;SDS011;5370;50.132;8.626;2023-07-29T14:26:03;3.30;;;2.35;;
10643;SDS011;5370;50.132;8.626;2023-07-29T14:28:29;2.63;;;2.13;;
10643;SDS011;5370;50.132;8.626;2023-07-29T14:30:55;2.22;;;2.03;;
10643;SDS011;5370;50.132;8.626;2023-07-29T14:33:21;3.22;;;1.75;;
10643;SDS011;5370;50.132;8.626;2023-07-29T14:35:46;2.08;;;1.85;;
10643;SDS011;5370;50.132;8.626;2023-07-29T14:38:12;2.58;;;2.08;;
10643;SDS011;5370;50.132;8.626;2023-07-29T14:40:37;5.00;;;1.90;;
10643;SDS011;5370;50.132;8.626;2023-07-29T14:43:03;3.40;;;3.15;;
10643;SDS011;5370;50.132;8.626;2023-07-29T14:45:29;1.52;;;1.42;;
10643;SDS011;5370;50.132;8.626;2023-07-29T14:47:54;1.58;;;1.48;;
10643;SDS011;5370;50.132;8.626;2023-07-29T14:50:19;1.88;;;1.63;;
10643;SDS011;5370;50.132;8.626;2023-07-29T14:52:45;4.25;;;3.88;;
10643;SDS011;5370;50.132;8.626;2023-07-29T14:55:11;1.80;;;1.63;;
10643;SDS011;5370;50.132;8.626;2023-07-29T14:57:36;1.95;;;1.77;;
10643;SDS011;5370;50.132;8.626;2023-07-29T15:00:03;1.65;;;1.55;;
10643;SDS011;5370;50.132;8.626;2023-07-29T15:02:29;1.52;;;1.35;;
10643;SDS011;5370;50.132;8.626;2023-07-29T15:04:54;4.82;;;2.90;;
10643;SDS011;5370;50.132;8.626;2023-07-29T15:07:20;12.02;;;10.13;;
10643;SDS011;5370;50.132;8.626;2023-07-29T15:09:45;2.83;;;2.63;;
10643;SDS011;5370;50.132;8.626;2023-07-29T15:12:11;3.17;;;2.67;;
10643;SDS011;5370;50.132;8.626;2023-07-29T15:14:36;2.88;;;1.23;;
10643;SDS011;5370;50.132;8.626;2023-07-29T15:17:02;3.35;;;3.05;;
10643;SDS011;5370;50.132;8.626;2023-07-29T15:19:28;6.70;;;2.70;;